Lodeynoye Pole, Russia
Current Conditions -  °F | °C
As of 3:00 AM on Saturday 25 Oct 2014 (Local Time) from ULPB Reporting Station
NA  
Wind Chill: 21°   Ceiling: NA
Heat Index: 27°   Visibility: 6mi
Dew Point: 21°   Wind: 4mph
Humidity: 80%   Direction: 200°SSW
Pressure: 30.53"   Gusts: NA
Location:  60.73°N, 33.56°E
Report Text: ULPB 250000Z AUTO 20002MPS 130V270 9999 ////// M03/M06 Q1034
Loading
Personal Weather Stations






























Interactive Weather Map
Tropical Storm Tracking
New forecast layout! Learn more

10-Day Weather Forecast

Advertisements
Track Severe Weather on mobile